createdAt,value
2022-10-24T00:01:21.475Z,1.40
2022-10-24T00:06:19.189Z,2.83
2022-10-24T00:11:20.070Z,1.20
2022-10-24T00:16:16.395Z,1.15
2022-10-24T00:21:13.326Z,1.25
2022-10-24T00:26:11.398Z,1.75
2022-10-24T00:31:13.467Z,1.20
2022-10-24T00:36:14.886Z,1.75
2022-10-24T00:41:15.997Z,2.55
2022-10-24T00:46:13.943Z,3.20
2022-10-24T00:51:32.522Z,2.67
2022-10-24T00:56:32.312Z,2.65
2022-10-24T01:01:28.845Z,2.53
2022-10-24T01:06:53.822Z,2.38
2022-10-24T01:12:03.043Z,3.42
2022-10-24T01:17:25.528Z,2.45
2022-10-24T01:22:32.882Z,2.60
2022-10-24T01:27:44.723Z,2.80
2022-10-24T01:33:11.299Z,2.28
2022-10-24T01:38:31.068Z,2.50
2022-10-24T01:43:33.448Z,3.05
2022-10-24T01:48:35.069Z,3.38
2022-10-24T01:53:31.503Z,2.58
2022-10-24T01:58:27.940Z,2.78
2022-10-24T02:03:30.792Z,2.35
2022-10-24T02:08:34.704Z,2.40
2022-10-24T02:14:18.609Z,2.88
2022-10-24T02:19:16.024Z,3.60
2022-10-24T02:24:18.728Z,2.87
2022-10-24T02:29:25.206Z,2.50
2022-10-24T02:34:23.859Z,2.00
2022-10-24T02:39:21.210Z,3.13
2022-10-24T02:44:19.147Z,2.40
2022-10-24T02:49:15.573Z,2.08
2022-10-24T02:54:12.487Z,1.77
2022-10-24T03:04:06.279Z,2.13
2022-10-24T03:09:02.751Z,1.90
2022-10-24T03:13:59.090Z,1.95
2022-10-24T03:18:55.822Z,1.58
2022-10-24T03:23:52.342Z,2.10
2022-10-24T03:28:48.687Z,1.85
2022-10-24T03:33:45.026Z,1.80
2022-10-24T03:38:41.428Z,3.28
2022-10-24T03:43:37.778Z,3.75
2022-10-24T03:48:34.157Z,2.28
2022-10-24T03:53:30.507Z,2.30
2022-10-24T03:58:27.087Z,2.53
2022-10-24T04:03:23.459Z,2.03
2022-10-24T04:08:20.240Z,2.13
2022-10-24T04:13:16.619Z,2.15
2022-10-24T04:18:13.020Z,2.83
2022-10-24T04:23:09.466Z,3.30
2022-10-24T04:28:05.854Z,1.75
2022-10-24T04:33:02.249Z,2.15
2022-10-24T04:37:58.647Z,1.80
2022-10-24T04:42:55.577Z,1.83
2022-10-24T04:47:52.049Z,2.38
2022-10-24T04:52:48.390Z,3.25
2022-10-24T04:57:44.882Z,2.13
2022-10-24T05:02:41.667Z,2.15
2022-10-24T05:07:38.332Z,2.30
2022-10-24T05:12:34.716Z,2.22
2022-10-24T05:17:31.283Z,1.67
2022-10-24T05:22:27.684Z,2.00
2022-10-24T05:27:26.897Z,2.15
2022-10-24T05:32:24.014Z,1.65
2022-10-24T05:37:20.439Z,2.55
2022-10-24T05:42:17.577Z,2.13
2022-10-24T05:47:14.178Z,2.10
2022-10-24T05:52:10.600Z,1.95
2022-10-24T05:57:07.072Z,1.80
2022-10-24T06:02:03.717Z,1.80
2022-10-24T06:07:00.148Z,2.00
2022-10-24T06:11:56.501Z,1.88
2022-10-24T06:16:52.859Z,1.52
2022-10-24T06:21:49.272Z,1.70
2022-10-24T06:26:45.755Z,2.20
2022-10-24T06:31:42.101Z,2.50
2022-10-24T06:36:38.454Z,1.48
2022-10-24T06:41:34.804Z,1.60
2022-10-24T06:46:31.215Z,2.17
2022-10-24T06:51:27.641Z,1.30
2022-10-24T06:56:24.089Z,1.98
2022-10-24T07:01:23.405Z,1.60
2022-10-24T07:11:25.874Z,1.42
2022-10-24T07:16:22.673Z,1.83
2022-10-24T07:21:22.445Z,1.33
2022-10-24T07:26:20.499Z,1.17
2022-10-24T07:36:22.190Z,1.27
2022-10-24T07:41:18.825Z,1.15
2022-10-24T07:46:17.072Z,1.08
2022-10-24T07:51:14.789Z,1.20
2022-10-24T07:56:15.865Z,1.52
2022-10-24T08:01:20.067Z,1.10
2022-10-24T08:06:19.107Z,0.93
2022-10-24T08:11:18.549Z,1.35
2022-10-24T08:16:17.157Z,1.25
2022-10-24T08:21:15.692Z,1.15
2022-10-24T08:26:14.847Z,1.20
2022-10-24T08:31:16.602Z,1.52
2022-10-24T08:36:30.297Z,1.33
2022-10-24T08:41:26.665Z,0.90
2022-10-24T08:46:28.621Z,1.55
2022-10-24T08:51:37.554Z,1.05
2022-10-24T08:56:34.221Z,1.10
2022-10-24T09:01:44.025Z,1.60
2022-10-24T09:06:40.892Z,1.17
2022-10-24T09:11:55.308Z,0.65
2022-10-24T09:16:57.907Z,0.95
2022-10-24T09:21:56.917Z,1.25
2022-10-24T09:26:53.369Z,1.42
2022-10-24T09:31:49.899Z,1.02
2022-10-24T09:36:46.431Z,1.45
2022-10-24T09:41:46.566Z,1.30
2022-10-24T09:46:45.839Z,0.98
2022-10-24T09:52:04.446Z,0.73
2022-10-24T10:02:46.020Z,1.02
2022-10-24T10:07:48.328Z,1.20
2022-10-24T10:12:54.678Z,1.40
2022-10-24T10:17:53.178Z,1.77
2022-10-24T10:22:49.526Z,1.42
2022-10-24T10:27:51.070Z,1.10
2022-10-24T10:33:00.138Z,1.30
2022-10-24T10:38:09.734Z,0.80
2022-10-24T10:43:24.993Z,0.90
2022-10-24T10:48:42.190Z,2.00
2022-10-24T10:53:50.787Z,1.15
2022-10-24T10:59:07.859Z,1.27
2022-10-24T11:04:19.158Z,1.50
2022-10-24T11:09:33.044Z,0.90
2022-10-24T11:14:39.587Z,1.05
2022-10-24T11:19:54.185Z,1.42
2022-10-24T11:25:01.398Z,1.13
2022-10-24T11:30:13.225Z,0.70
2022-10-24T11:35:29.439Z,0.85
2022-10-24T11:45:56.256Z,1.17
2022-10-24T11:50:59.415Z,1.00
2022-10-24T11:56:06.090Z,1.65
2022-10-24T12:01:24.042Z,1.40
2022-10-24T12:06:42.654Z,1.55
2022-10-24T12:12:01.116Z,1.30
2022-10-24T12:17:06.207Z,1.52
2022-10-24T12:22:05.011Z,1.50
2022-10-24T12:27:31.508Z,1.45
2022-10-24T12:32:39.587Z,1.42
2022-10-24T12:37:36.337Z,1.15
2022-10-24T12:42:32.587Z,1.00
2022-10-24T12:47:30.805Z,1.30
2022-10-24T12:52:30.213Z,1.40
2022-10-24T12:57:31.920Z,1.05
2022-10-24T13:02:52.778Z,1.17
2022-10-24T13:08:08.045Z,0.80
2022-10-24T13:13:26.244Z,1.33
2022-10-24T13:18:36.278Z,0.90
2022-10-24T13:23:33.253Z,1.40
2022-10-24T13:28:35.919Z,1.10
2022-10-24T13:33:32.597Z,1.30
2022-10-24T13:38:29.538Z,1.50
2022-10-24T13:43:26.473Z,1.13
2022-10-24T13:48:33.075Z,0.98
2022-10-24T13:53:41.875Z,1.17
2022-10-24T13:58:44.206Z,1.00
2022-10-24T14:03:43.391Z,1.67
2022-10-24T14:09:00.846Z,1.00
2022-10-24T14:14:04.247Z,1.00
2022-10-24T14:19:32.548Z,1.35
2022-10-24T14:24:30.665Z,1.67
2022-10-24T14:29:32.414Z,1.77
2022-10-24T14:34:33.897Z,1.17
2022-10-24T14:39:33.342Z,1.40
2022-10-24T14:44:29.927Z,1.67
2022-10-24T14:49:26.192Z,1.00
2022-10-24T14:54:26.726Z,1.00
2022-10-24T14:59:35.068Z,1.15
2022-10-24T15:04:38.250Z,1.83
2022-10-24T15:09:34.545Z,2.00
2022-10-24T15:14:38.961Z,1.50
2022-10-24T15:19:38.583Z,1.60
2022-10-24T15:24:35.052Z,1.52
2022-10-24T15:29:31.779Z,1.30
2022-10-24T15:34:29.837Z,0.93
2022-10-24T15:44:26.533Z,1.15
2022-10-24T15:49:22.927Z,0.98
2022-10-24T15:54:21.773Z,1.00
2022-10-24T15:59:19.832Z,0.88
2022-10-24T16:04:17.035Z,1.15
2022-10-24T16:09:16.316Z,0.83
2022-10-24T16:14:14.973Z,1.20
2022-10-24T16:19:11.463Z,1.08
2022-10-24T16:24:08.758Z,1.00
2022-10-24T16:29:05.755Z,2.07
2022-10-24T16:34:02.736Z,1.63
2022-10-24T16:38:59.053Z,1.65
2022-10-24T16:43:57.273Z,2.03
2022-10-24T16:48:54.303Z,2.95
2022-10-24T16:53:50.757Z,2.60
2022-10-24T16:58:47.084Z,1.10
2022-10-24T17:03:45.003Z,2.35
2022-10-24T17:08:41.378Z,2.13
2022-10-24T17:13:37.791Z,1.48
2022-10-24T17:18:35.467Z,1.65
2022-10-24T17:23:32.300Z,1.08
2022-10-24T17:28:33.087Z,1.50
2022-10-24T17:33:29.966Z,1.45
2022-10-24T17:38:55.403Z,2.10
2022-10-24T17:43:53.386Z,1.00
2022-10-24T17:48:50.547Z,1.33
2022-10-24T17:53:46.900Z,0.93
2022-10-24T17:58:43.578Z,1.13
2022-10-24T18:03:39.886Z,1.15
2022-10-24T18:08:36.254Z,1.33
2022-10-24T18:13:35.589Z,1.23
2022-10-24T18:18:31.873Z,1.30
2022-10-24T18:23:28.188Z,1.42
2022-10-24T18:28:24.652Z,1.40
2022-10-24T18:33:20.937Z,1.40
2022-10-24T18:38:18.851Z,1.23
2022-10-24T18:43:16.093Z,1.25
2022-10-24T18:48:12.914Z,1.23
2022-10-24T18:53:22.451Z,1.77
2022-10-24T18:58:20.201Z,1.38
2022-10-24T19:03:33.554Z,2.20
2022-10-24T19:08:30.070Z,1.63
2022-10-24T19:13:27.132Z,1.67
2022-10-24T19:18:25.019Z,1.77
2022-10-24T19:23:21.624Z,1.90
2022-10-24T19:28:19.603Z,1.58
2022-10-24T19:33:16.556Z,2.35
2022-10-24T19:38:17.396Z,3.42
2022-10-24T19:43:14.127Z,2.83
2022-10-24T19:48:11.779Z,3.42
2022-10-24T19:53:08.437Z,2.60
2022-10-24T19:58:08.945Z,2.25
2022-10-24T20:03:05.589Z,1.20
2022-10-24T20:08:01.939Z,2.00
2022-10-24T20:12:58.322Z,2.38
2022-10-24T20:17:54.858Z,1.70
2022-10-24T20:22:51.361Z,1.92
2022-10-24T20:27:48.231Z,1.58
2022-10-24T20:32:44.683Z,1.15
2022-10-24T20:37:41.648Z,1.08
2022-10-24T20:42:38.315Z,1.50
2022-10-24T20:47:34.618Z,1.63
2022-10-24T20:52:30.922Z,1.30
2022-10-24T20:57:27.278Z,1.08
2022-10-24T21:02:23.726Z,0.95
2022-10-24T21:07:20.111Z,1.17
2022-10-24T21:12:16.438Z,0.95
2022-10-24T21:17:13.019Z,0.70
2022-10-24T21:22:09.404Z,1.20
2022-10-24T21:27:05.792Z,1.27
2022-10-24T21:32:02.167Z,0.88
2022-10-24T21:36:58.642Z,0.90
2022-10-24T21:41:54.986Z,0.90
2022-10-24T21:46:51.875Z,1.10
2022-10-24T21:51:48.546Z,0.90
2022-10-24T21:56:45.462Z,0.82
2022-10-24T22:01:43.696Z,1.10
2022-10-24T22:06:40.750Z,0.90
2022-10-24T22:11:37.185Z,0.90
2022-10-24T22:16:34.258Z,0.90
2022-10-24T22:21:33.593Z,0.80
2022-10-24T22:26:30.997Z,0.90
2022-10-24T22:31:29.087Z,0.80
2022-10-24T22:36:40.310Z,1.00
2022-10-24T22:41:36.862Z,0.85
2022-10-24T22:47:07.087Z,1.67
2022-10-24T22:52:03.845Z,1.70
2022-10-24T22:57:00.689Z,1.60
2022-10-24T23:02:04.941Z,1.55
2022-10-24T23:07:27.426Z,1.30
2022-10-24T23:12:24.686Z,1.00
2022-10-24T23:17:26.768Z,1.80
2022-10-24T23:22:27.335Z,2.15
2022-10-24T23:27:34.340Z,1.40
2022-10-24T23:32:33.109Z,1.90
2022-10-24T23:37:42.318Z,2.50
2022-10-24T23:42:38.860Z,2.05
2022-10-24T23:47:56.302Z,2.70
2022-10-24T23:53:18.453Z,3.83
2022-10-24T23:58:14.869Z,3.20
